sensor_id;sensor_type;location;lat;lon;timestamp;P1;durP1;ratioP1;P2;durP2;ratioP2
71353;SDS011;59393;51.652;4.864;2022-07-18T00:02:04;8.10;;;3.03;;
71353;SDS011;59393;51.652;4.864;2022-07-18T00:04:30;5.65;;;2.40;;
71353;SDS011;59393;51.652;4.864;2022-07-18T00:06:57;5.43;;;2.23;;
71353;SDS011;59393;51.652;4.864;2022-07-18T00:09:23;8.23;;;2.90;;
71353;SDS011;59393;51.652;4.864;2022-07-18T00:11:50;6.43;;;3.08;;
71353;SDS011;59393;51.652;4.864;2022-07-18T00:14:16;8.93;;;3.50;;
71353;SDS011;59393;51.652;4.864;2022-07-18T00:16:42;7.43;;;3.13;;
71353;SDS011;59393;51.652;4.864;2022-07-18T00:19:08;10.20;;;2.90;;
71353;SDS011;59393;51.652;4.864;2022-07-18T00:21:34;5.68;;;2.70;;
71353;SDS011;59393;51.652;4.864;2022-07-18T00:24:00;7.10;;;2.80;;
71353;SDS011;59393;51.652;4.864;2022-07-18T00:26:26;7.40;;;2.55;;
71353;SDS011;59393;51.652;4.864;2022-07-18T00:28:52;6.30;;;2.60;;
71353;SDS011;59393;51.652;4.864;2022-07-18T00:31:19;6.80;;;2.40;;
71353;SDS011;59393;51.652;4.864;2022-07-18T00:33:44;6.53;;;2.55;;
71353;SDS011;59393;51.652;4.864;2022-07-18T00:36:11;6.75;;;2.70;;
71353;SDS011;59393;51.652;4.864;2022-07-18T00:38:37;8.60;;;2.83;;
71353;SDS011;59393;51.652;4.864;2022-07-18T00:41:04;7.45;;;2.90;;
71353;SDS011;59393;51.652;4.864;2022-07-18T00:43:30;8.20;;;2.70;;
71353;SDS011;59393;51.652;4.864;2022-07-18T00:45:56;7.10;;;2.83;;
71353;SDS011;59393;51.652;4.864;2022-07-18T00:48:22;7.57;;;3.20;;
71353;SDS011;59393;51.652;4.864;2022-07-18T00:50:48;6.57;;;2.42;;
71353;SDS011;59393;51.652;4.864;2022-07-18T00:53:14;10.20;;;2.50;;
71353;SDS011;59393;51.652;4.864;2022-07-18T00:55:42;8.90;;;2.77;;
71353;SDS011;59393;51.652;4.864;2022-07-18T00:58:09;7.03;;;2.65;;
71353;SDS011;59393;51.652;4.864;2022-07-18T01:00:35;6.70;;;2.35;;
71353;SDS011;59393;51.652;4.864;2022-07-18T01:03:20;5.88;;;2.60;;
71353;SDS011;59393;51.652;4.864;2022-07-18T01:05:46;7.53;;;2.55;;
71353;SDS011;59393;51.652;4.864;2022-07-18T01:08:12;6.27;;;2.83;;
71353;SDS011;59393;51.652;4.864;2022-07-18T01:10:38;9.80;;;2.67;;
71353;SDS011;59393;51.652;4.864;2022-07-18T01:13:04;9.20;;;2.50;;
71353;SDS011;59393;51.652;4.864;2022-07-18T01:15:30;8.55;;;3.00;;
71353;SDS011;59393;51.652;4.864;2022-07-18T01:17:56;7.57;;;2.72;;
71353;SDS011;59393;51.652;4.864;2022-07-18T01:20:25;6.40;;;2.43;;
71353;SDS011;59393;51.652;4.864;2022-07-18T01:22:51;9.13;;;2.53;;
71353;SDS011;59393;51.652;4.864;2022-07-18T01:25:17;5.43;;;2.40;;
71353;SDS011;59393;51.652;4.864;2022-07-18T01:27:43;9.07;;;2.47;;
71353;SDS011;59393;51.652;4.864;2022-07-18T01:30:09;6.63;;;2.20;;
71353;SDS011;59393;51.652;4.864;2022-07-18T01:32:35;6.65;;;2.42;;
71353;SDS011;59393;51.652;4.864;2022-07-18T01:35:01;6.88;;;2.92;;
71353;SDS011;59393;51.652;4.864;2022-07-18T01:37:27;7.32;;;2.63;;
71353;SDS011;59393;51.652;4.864;2022-07-18T01:39:53;8.10;;;2.47;;
71353;SDS011;59393;51.652;4.864;2022-07-18T01:42:19;6.93;;;2.63;;
71353;SDS011;59393;51.652;4.864;2022-07-18T01:44:45;6.88;;;2.38;;
71353;SDS011;59393;51.652;4.864;2022-07-18T01:47:11;9.02;;;2.55;;
71353;SDS011;59393;51.652;4.864;2022-07-18T01:49:38;9.00;;;2.67;;
71353;SDS011;59393;51.652;4.864;2022-07-18T01:52:04;7.43;;;2.50;;
71353;SDS011;59393;51.652;4.864;2022-07-18T01:54:32;7.80;;;2.60;;
71353;SDS011;59393;51.652;4.864;2022-07-18T01:56:58;9.93;;;3.10;;
71353;SDS011;59393;51.652;4.864;2022-07-18T01:59:25;10.43;;;3.08;;
71353;SDS011;59393;51.652;4.864;2022-07-18T02:01:51;6.28;;;2.60;;
71353;SDS011;59393;51.652;4.864;2022-07-18T02:04:17;6.20;;;2.45;;
71353;SDS011;59393;51.652;4.864;2022-07-18T02:06:43;6.40;;;2.50;;
71353;SDS011;59393;51.652;4.864;2022-07-18T02:09:09;7.90;;;2.60;;
71353;SDS011;59393;51.652;4.864;2022-07-18T02:11:35;8.45;;;2.92;;
71353;SDS011;59393;51.652;4.864;2022-07-18T02:14:02;9.20;;;2.50;;
71353;SDS011;59393;51.652;4.864;2022-07-18T02:16:28;6.72;;;2.45;;
71353;SDS011;59393;51.652;4.864;2022-07-18T02:18:55;7.80;;;2.83;;
71353;SDS011;59393;51.652;4.864;2022-07-18T02:21:21;5.80;;;2.45;;
71353;SDS011;59393;51.652;4.864;2022-07-18T02:23:47;7.20;;;2.40;;
71353;SDS011;59393;51.652;4.864;2022-07-18T02:26:16;9.55;;;2.80;;
71353;SDS011;59393;51.652;4.864;2022-07-18T02:28:42;7.55;;;2.83;;
71353;SDS011;59393;51.652;4.864;2022-07-18T02:31:08;9.37;;;2.77;;
71353;SDS011;59393;51.652;4.864;2022-07-18T02:33:34;6.03;;;2.83;;
71353;SDS011;59393;51.652;4.864;2022-07-18T02:36:00;6.95;;;2.53;;
71353;SDS011;59393;51.652;4.864;2022-07-18T02:38:26;9.05;;;2.72;;
71353;SDS011;59393;51.652;4.864;2022-07-18T02:40:52;7.78;;;2.78;;
71353;SDS011;59393;51.652;4.864;2022-07-18T02:43:18;6.93;;;2.97;;
71353;SDS011;59393;51.652;4.864;2022-07-18T02:45:44;8.13;;;3.15;;
71353;SDS011;59393;51.652;4.864;2022-07-18T02:48:10;6.88;;;2.80;;
71353;SDS011;59393;51.652;4.864;2022-07-18T02:50:36;6.55;;;2.75;;
71353;SDS011;59393;51.652;4.864;2022-07-18T02:53:02;6.53;;;2.83;;
71353;SDS011;59393;51.652;4.864;2022-07-18T02:55:28;7.78;;;2.70;;
71353;SDS011;59393;51.652;4.864;2022-07-18T02:57:54;10.45;;;3.03;;
71353;SDS011;59393;51.652;4.864;2022-07-18T03:00:20;6.97;;;2.83;;
71353;SDS011;59393;51.652;4.864;2022-07-18T03:02:46;8.23;;;2.97;;
71353;SDS011;59393;51.652;4.864;2022-07-18T03:05:12;8.20;;;3.05;;
71353;SDS011;59393;51.652;4.864;2022-07-18T03:07:38;9.23;;;2.97;;
71353;SDS011;59393;51.652;4.864;2022-07-18T03:10:04;7.97;;;3.30;;
71353;SDS011;59393;51.652;4.864;2022-07-18T03:12:31;7.22;;;3.10;;
71353;SDS011;59393;51.652;4.864;2022-07-18T03:14:57;8.60;;;3.20;;
71353;SDS011;59393;51.652;4.864;2022-07-18T03:17:23;9.07;;;3.33;;
71353;SDS011;59393;51.652;4.864;2022-07-18T03:19:49;9.13;;;3.22;;
71353;SDS011;59393;51.652;4.864;2022-07-18T03:22:15;9.70;;;3.47;;
71353;SDS011;59393;51.652;4.864;2022-07-18T03:24:41;9.60;;;3.23;;
71353;SDS011;59393;51.652;4.864;2022-07-18T03:27:07;8.80;;;3.03;;
71353;SDS011;59393;51.652;4.864;2022-07-18T03:29:33;7.20;;;3.00;;
71353;SDS011;59393;51.652;4.864;2022-07-18T03:31:59;8.10;;;3.58;;
71353;SDS011;59393;51.652;4.864;2022-07-18T03:34:25;8.30;;;3.55;;
71353;SDS011;59393;51.652;4.864;2022-07-18T03:36:51;10.33;;;3.67;;
71353;SDS011;59393;51.652;4.864;2022-07-18T03:39:17;7.07;;;3.00;;
71353;SDS011;59393;51.652;4.864;2022-07-18T03:41:43;8.20;;;3.20;;
71353;SDS011;59393;51.652;4.864;2022-07-18T03:44:09;9.38;;;3.80;;
71353;SDS011;59393;51.652;4.864;2022-07-18T03:46:35;8.23;;;3.60;;
71353;SDS011;59393;51.652;4.864;2022-07-18T03:49:02;7.67;;;3.37;;
71353;SDS011;59393;51.652;4.864;2022-07-18T03:51:28;8.68;;;3.80;;
71353;SDS011;59393;51.652;4.864;2022-07-18T03:53:54;7.85;;;3.55;;
71353;SDS011;59393;51.652;4.864;2022-07-18T03:56:20;10.00;;;3.60;;
71353;SDS011;59393;51.652;4.864;2022-07-18T03:58:46;12.70;;;4.57;;
71353;SDS011;59393;51.652;4.864;2022-07-18T04:01:12;7.30;;;3.38;;
71353;SDS011;59393;51.652;4.864;2022-07-18T04:03:38;9.65;;;3.67;;
71353;SDS011;59393;51.652;4.864;2022-07-18T04:06:04;10.52;;;3.50;;
71353;SDS011;59393;51.652;4.864;2022-07-18T04:08:30;8.75;;;3.67;;
71353;SDS011;59393;51.652;4.864;2022-07-18T04:10:56;9.07;;;3.60;;
71353;SDS011;59393;51.652;4.864;2022-07-18T04:13:22;8.73;;;3.45;;
71353;SDS011;59393;51.652;4.864;2022-07-18T04:15:48;9.20;;;3.97;;
71353;SDS011;59393;51.652;4.864;2022-07-18T04:18:14;9.15;;;4.10;;
71353;SDS011;59393;51.652;4.864;2022-07-18T04:20:40;10.13;;;3.73;;
71353;SDS011;59393;51.652;4.864;2022-07-18T04:23:07;9.73;;;4.53;;
71353;SDS011;59393;51.652;4.864;2022-07-18T04:25:37;15.35;;;4.47;;
71353;SDS011;59393;51.652;4.864;2022-07-18T04:28:04;11.95;;;4.28;;
71353;SDS011;59393;51.652;4.864;2022-07-18T04:30:30;11.32;;;4.40;;
71353;SDS011;59393;51.652;4.864;2022-07-18T04:32:56;13.57;;;4.37;;
71353;SDS011;59393;51.652;4.864;2022-07-18T04:35:22;10.93;;;4.13;;
71353;SDS011;59393;51.652;4.864;2022-07-18T04:37:49;10.80;;;4.32;;
71353;SDS011;59393;51.652;4.864;2022-07-18T04:40:18;10.80;;;3.95;;
71353;SDS011;59393;51.652;4.864;2022-07-18T04:42:45;7.72;;;3.65;;
71353;SDS011;59393;51.652;4.864;2022-07-18T04:45:11;13.35;;;4.30;;
71353;SDS011;59393;51.652;4.864;2022-07-18T04:47:37;9.57;;;4.23;;
71353;SDS011;59393;51.652;4.864;2022-07-18T04:50:04;9.45;;;3.83;;
71353;SDS011;59393;51.652;4.864;2022-07-18T04:52:40;7.53;;;3.80;;
71353;SDS011;59393;51.652;4.864;2022-07-18T04:55:07;12.52;;;4.25;;
71353;SDS011;59393;51.652;4.864;2022-07-18T04:57:33;9.27;;;4.15;;
71353;SDS011;59393;51.652;4.864;2022-07-18T05:00:00;11.70;;;4.13;;
71353;SDS011;59393;51.652;4.864;2022-07-18T05:02:26;8.45;;;4.05;;
71353;SDS011;59393;51.652;4.864;2022-07-18T05:04:52;9.23;;;3.92;;
71353;SDS011;59393;51.652;4.864;2022-07-18T05:07:18;13.40;;;4.63;;
71353;SDS011;59393;51.652;4.864;2022-07-18T05:09:44;10.15;;;4.80;;
71353;SDS011;59393;51.652;4.864;2022-07-18T05:12:10;12.13;;;4.23;;
71353;SDS011;59393;51.652;4.864;2022-07-18T05:14:36;12.07;;;4.40;;
71353;SDS011;59393;51.652;4.864;2022-07-18T05:17:01;9.25;;;4.47;;
71353;SDS011;59393;51.652;4.864;2022-07-18T05:19:28;9.32;;;4.00;;
71353;SDS011;59393;51.652;4.864;2022-07-18T05:21:54;11.70;;;4.10;;
71353;SDS011;59393;51.652;4.864;2022-07-18T05:24:20;9.82;;;4.40;;
71353;SDS011;59393;51.652;4.864;2022-07-18T05:26:46;9.73;;;4.35;;
71353;SDS011;59393;51.652;4.864;2022-07-18T05:29:12;9.10;;;4.40;;
71353;SDS011;59393;51.652;4.864;2022-07-18T05:31:39;8.18;;;4.13;;
71353;SDS011;59393;51.652;4.864;2022-07-18T05:34:05;9.03;;;4.40;;
71353;SDS011;59393;51.652;4.864;2022-07-18T05:36:31;9.35;;;4.10;;
71353;SDS011;59393;51.652;4.864;2022-07-18T05:38:57;9.07;;;4.20;;
71353;SDS011;59393;51.652;4.864;2022-07-18T05:41:23;11.13;;;4.80;;
71353;SDS011;59393;51.652;4.864;2022-07-18T05:43:49;11.07;;;4.75;;
71353;SDS011;59393;51.652;4.864;2022-07-18T05:46:15;10.33;;;5.07;;
71353;SDS011;59393;51.652;4.864;2022-07-18T05:48:41;10.13;;;4.35;;
71353;SDS011;59393;51.652;4.864;2022-07-18T05:51:10;12.80;;;5.07;;
71353;SDS011;59393;51.652;4.864;2022-07-18T05:53:39;12.32;;;5.18;;
71353;SDS011;59393;51.652;4.864;2022-07-18T05:56:05;10.55;;;4.82;;
71353;SDS011;59393;51.652;4.864;2022-07-18T05:58:31;10.67;;;5.10;;
71353;SDS011;59393;51.652;4.864;2022-07-18T06:00:57;12.02;;;4.80;;
71353;SDS011;59393;51.652;4.864;2022-07-18T06:03:23;14.80;;;5.20;;
71353;SDS011;59393;51.652;4.864;2022-07-18T06:05:49;11.15;;;5.78;;
71353;SDS011;59393;51.652;4.864;2022-07-18T06:08:15;10.60;;;4.97;;
71353;SDS011;59393;51.652;4.864;2022-07-18T06:10:42;12.37;;;5.60;;
71353;SDS011;59393;51.652;4.864;2022-07-18T06:13:08;11.55;;;5.13;;
71353;SDS011;59393;51.652;4.864;2022-07-18T06:15:34;13.55;;;5.75;;
71353;SDS011;59393;51.652;4.864;2022-07-18T06:18:00;9.05;;;5.15;;
71353;SDS011;59393;51.652;4.864;2022-07-18T06:20:26;15.88;;;5.53;;
71353;SDS011;59393;51.652;4.864;2022-07-18T06:22:52;11.10;;;5.03;;
71353;SDS011;59393;51.652;4.864;2022-07-18T06:25:18;11.32;;;4.47;;
71353;SDS011;59393;51.652;4.864;2022-07-18T06:27:44;13.65;;;6.13;;
71353;SDS011;59393;51.652;4.864;2022-07-18T06:30:10;15.30;;;4.68;;
71353;SDS011;59393;51.652;4.864;2022-07-18T06:32:36;14.68;;;5.20;;
71353;SDS011;59393;51.652;4.864;2022-07-18T06:35:03;11.13;;;4.53;;
71353;SDS011;59393;51.652;4.864;2022-07-18T06:37:30;8.93;;;4.28;;
71353;SDS011;59393;51.652;4.864;2022-07-18T06:39:56;14.10;;;4.47;;
71353;SDS011;59393;51.652;4.864;2022-07-18T06:42:22;9.80;;;4.68;;
71353;SDS011;59393;51.652;4.864;2022-07-18T06:44:48;10.63;;;4.00;;
71353;SDS011;59393;51.652;4.864;2022-07-18T06:47:14;12.83;;;3.73;;
71353;SDS011;59393;51.652;4.864;2022-07-18T06:49:40;8.13;;;3.50;;
71353;SDS011;59393;51.652;4.864;2022-07-18T06:52:06;17.33;;;3.75;;
71353;SDS011;59393;51.652;4.864;2022-07-18T06:54:34;9.98;;;3.80;;
71353;SDS011;59393;51.652;4.864;2022-07-18T06:57:02;10.63;;;3.63;;
71353;SDS011;59393;51.652;4.864;2022-07-18T06:59:32;8.60;;;3.20;;
71353;SDS011;59393;51.652;4.864;2022-07-18T07:01:58;11.45;;;3.55;;
71353;SDS011;59393;51.652;4.864;2022-07-18T07:04:24;9.98;;;2.80;;
71353;SDS011;59393;51.652;4.864;2022-07-18T07:06:50;7.88;;;3.38;;
71353;SDS011;59393;51.652;4.864;2022-07-18T07:09:16;8.23;;;2.80;;
71353;SDS011;59393;51.652;4.864;2022-07-18T07:11:42;11.47;;;2.97;;
71353;SDS011;59393;51.652;4.864;2022-07-18T07:14:08;10.32;;;3.75;;
71353;SDS011;59393;51.652;4.864;2022-07-18T07:16:34;14.75;;;3.65;;
71353;SDS011;59393;51.652;4.864;2022-07-18T07:19:00;9.00;;;3.17;;
71353;SDS011;59393;51.652;4.864;2022-07-18T07:21:26;12.00;;;3.50;;
71353;SDS011;59393;51.652;4.864;2022-07-18T07:23:52;8.80;;;3.30;;
71353;SDS011;59393;51.652;4.864;2022-07-18T07:26:18;9.07;;;2.90;;
71353;SDS011;59393;51.652;4.864;2022-07-18T07:28:44;14.52;;;3.65;;
71353;SDS011;59393;51.652;4.864;2022-07-18T07:31:10;7.15;;;2.80;;
71353;SDS011;59393;51.652;4.864;2022-07-18T07:33:36;9.68;;;3.15;;
71353;SDS011;59393;51.652;4.864;2022-07-18T07:36:02;18.37;;;2.97;;
71353;SDS011;59393;51.652;4.864;2022-07-18T07:38:29;7.70;;;2.80;;
71353;SDS011;59393;51.652;4.864;2022-07-18T07:40:55;9.05;;;2.75;;
71353;SDS011;59393;51.652;4.864;2022-07-18T07:43:22;6.60;;;2.50;;
71353;SDS011;59393;51.652;4.864;2022-07-18T07:45:49;8.02;;;2.75;;
71353;SDS011;59393;51.652;4.864;2022-07-18T07:48:17;5.87;;;2.80;;
71353;SDS011;59393;51.652;4.864;2022-07-18T07:50:43;10.57;;;2.60;;
71353;SDS011;59393;51.652;4.864;2022-07-18T07:53:09;6.65;;;2.40;;
71353;SDS011;59393;51.652;4.864;2022-07-18T07:55:35;7.07;;;2.28;;
71353;SDS011;59393;51.652;4.864;2022-07-18T07:58:02;4.87;;;2.10;;
71353;SDS011;59393;51.652;4.864;2022-07-18T08:00:30;6.53;;;2.08;;
71353;SDS011;59393;51.652;4.864;2022-07-18T08:02:57;6.35;;;2.33;;
71353;SDS011;59393;51.652;4.864;2022-07-18T08:05:26;6.13;;;2.03;;
71353;SDS011;59393;51.652;4.864;2022-07-18T08:07:52;6.05;;;1.90;;
71353;SDS011;59393;51.652;4.864;2022-07-18T08:10:18;10.10;;;1.90;;
71353;SDS011;59393;51.652;4.864;2022-07-18T08:12:44;11.45;;;3.78;;
71353;SDS011;59393;51.652;4.864;2022-07-18T08:15:10;7.70;;;2.03;;
71353;SDS011;59393;51.652;4.864;2022-07-18T08:17:36;7.75;;;2.10;;
71353;SDS011;59393;51.652;4.864;2022-07-18T08:20:02;6.57;;;1.98;;
71353;SDS011;59393;51.652;4.864;2022-07-18T08:22:29;7.17;;;2.07;;
71353;SDS011;59393;51.652;4.864;2022-07-18T08:24:55;7.03;;;2.00;;
71353;SDS011;59393;51.652;4.864;2022-07-18T08:27:21;8.55;;;2.00;;
71353;SDS011;59393;51.652;4.864;2022-07-18T08:29:47;6.85;;;2.22;;
71353;SDS011;59393;51.652;4.864;2022-07-18T08:32:13;14.13;;;3.90;;
71353;SDS011;59393;51.652;4.864;2022-07-18T08:34:39;6.60;;;1.93;;
71353;SDS011;59393;51.652;4.864;2022-07-18T08:37:05;12.80;;;1.90;;
71353;SDS011;59393;51.652;4.864;2022-07-18T08:39:31;7.13;;;1.90;;
71353;SDS011;59393;51.652;4.864;2022-07-18T08:41:57;5.70;;;2.00;;
71353;SDS011;59393;51.652;4.864;2022-07-18T08:44:25;5.90;;;1.90;;
71353;SDS011;59393;51.652;4.864;2022-07-18T08:46:52;5.73;;;1.67;;
71353;SDS011;59393;51.652;4.864;2022-07-18T08:49:19;6.43;;;2.00;;
71353;SDS011;59393;51.652;4.864;2022-07-18T08:51:45;7.35;;;2.13;;
71353;SDS011;59393;51.652;4.864;2022-07-18T08:54:11;7.18;;;2.00;;
71353;SDS011;59393;51.652;4.864;2022-07-18T08:56:37;8.38;;;2.20;;
71353;SDS011;59393;51.652;4.864;2022-07-18T08:59:03;4.13;;;1.50;;
71353;SDS011;59393;51.652;4.864;2022-07-18T09:01:29;7.93;;;2.10;;
71353;SDS011;59393;51.652;4.864;2022-07-18T09:03:55;7.65;;;1.70;;
71353;SDS011;59393;51.652;4.864;2022-07-18T09:06:47;5.45;;;1.90;;
71353;SDS011;59393;51.652;4.864;2022-07-18T09:09:14;7.43;;;2.00;;
71353;SDS011;59393;51.652;4.864;2022-07-18T09:11:51;6.53;;;1.80;;
71353;SDS011;59393;51.652;4.864;2022-07-18T09:14:30;6.47;;;1.85;;
71353;SDS011;59393;51.652;4.864;2022-07-18T09:17:04;5.38;;;2.00;;
71353;SDS011;59393;51.652;4.864;2022-07-18T09:19:30;7.25;;;1.92;;
71353;SDS011;59393;51.652;4.864;2022-07-18T09:27:23;6.60;;;2.08;;
71353;SDS011;59393;51.652;4.864;2022-07-18T09:35:18;7.20;;;1.60;;
71353;SDS011;59393;51.652;4.864;2022-07-18T09:40:41;5.82;;;1.55;;
71353;SDS011;59393;51.652;4.864;2022-07-18T09:43:10;7.85;;;2.00;;
71353;SDS011;59393;51.652;4.864;2022-07-18T09:45:37;13.05;;;1.80;;
71353;SDS011;59393;51.652;4.864;2022-07-18T09:48:05;7.53;;;1.95;;
71353;SDS011;59393;51.652;4.864;2022-07-18T09:50:33;6.47;;;1.73;;
71353;SDS011;59393;51.652;4.864;2022-07-18T09:53:10;4.90;;;1.63;;
71353;SDS011;59393;51.652;4.864;2022-07-18T09:55:36;11.63;;;2.10;;
71353;SDS011;59393;51.652;4.864;2022-07-18T09:58:07;4.93;;;1.50;;
71353;SDS011;59393;51.652;4.864;2022-07-18T10:00:34;4.80;;;1.63;;
71353;SDS011;59393;51.652;4.864;2022-07-18T10:03:01;6.40;;;2.00;;
71353;SDS011;59393;51.652;4.864;2022-07-18T10:05:37;5.40;;;1.60;;
71353;SDS011;59393;51.652;4.864;2022-07-18T10:08:05;12.32;;;1.90;;
71353;SDS011;59393;51.652;4.864;2022-07-18T10:10:34;4.97;;;1.92;;
71353;SDS011;59393;51.652;4.864;2022-07-18T10:13:01;6.47;;;2.10;;
71353;SDS011;59393;51.652;4.864;2022-07-18T10:15:29;7.27;;;1.80;;
71353;SDS011;59393;51.652;4.864;2022-07-18T10:17:55;7.20;;;1.90;;
71353;SDS011;59393;51.652;4.864;2022-07-18T10:20:25;5.38;;;1.98;;
71353;SDS011;59393;51.652;4.864;2022-07-18T10:22:52;8.30;;;2.10;;
71353;SDS011;59393;51.652;4.864;2022-07-18T10:25:21;9.25;;;2.22;;
71353;SDS011;59393;51.652;4.864;2022-07-18T10:30:14;5.47;;;2.00;;
71353;SDS011;59393;51.652;4.864;2022-07-18T10:32:41;7.40;;;1.90;;
71353;SDS011;59393;51.652;4.864;2022-07-18T10:35:07;4.95;;;1.90;;
71353;SDS011;59393;51.652;4.864;2022-07-18T10:37:36;6.32;;;2.00;;
71353;SDS011;59393;51.652;4.864;2022-07-18T10:40:23;15.87;;;2.23;;
71353;SDS011;59393;51.652;4.864;2022-07-18T10:45:44;7.90;;;2.28;;
71353;SDS011;59393;51.652;4.864;2022-07-18T10:51:16;6.70;;;1.90;;
71353;SDS011;59393;51.652;4.864;2022-07-18T10:56:20;5.38;;;1.83;;
71353;SDS011;59393;51.652;4.864;2022-07-18T10:58:46;4.50;;;1.67;;
71353;SDS011;59393;51.652;4.864;2022-07-18T11:01:15;5.65;;;1.67;;
71353;SDS011;59393;51.652;4.864;2022-07-18T11:03:41;8.68;;;1.98;;
71353;SDS011;59393;51.652;4.864;2022-07-18T11:06:08;4.83;;;1.80;;
71353;SDS011;59393;51.652;4.864;2022-07-18T11:08:34;6.72;;;1.90;;
71353;SDS011;59393;51.652;4.864;2022-07-18T11:11:04;7.13;;;2.05;;
71353;SDS011;59393;51.652;4.864;2022-07-18T11:13:30;5.40;;;1.80;;
71353;SDS011;59393;51.652;4.864;2022-07-18T11:21:27;4.25;;;1.63;;
71353;SDS011;59393;51.652;4.864;2022-07-18T11:23:58;4.93;;;2.03;;
71353;SDS011;59393;51.652;4.864;2022-07-18T11:26:25;4.60;;;1.85;;
71353;SDS011;59393;51.652;4.864;2022-07-18T11:29:10;8.40;;;1.98;;
71353;SDS011;59393;51.652;4.864;2022-07-18T11:31:45;5.70;;;1.60;;
71353;SDS011;59393;51.652;4.864;2022-07-18T11:34:12;6.93;;;1.80;;
71353;SDS011;59393;51.652;4.864;2022-07-18T11:36:39;7.63;;;1.85;;
71353;SDS011;59393;51.652;4.864;2022-07-18T11:39:06;8.40;;;1.90;;
71353;SDS011;59393;51.652;4.864;2022-07-18T11:41:32;5.63;;;1.90;;
71353;SDS011;59393;51.652;4.864;2022-07-18T11:43:58;7.43;;;2.23;;
71353;SDS011;59393;51.652;4.864;2022-07-18T11:46:25;6.30;;;2.17;;
71353;SDS011;59393;51.652;4.864;2022-07-18T11:49:04;8.75;;;1.83;;
71353;SDS011;59393;51.652;4.864;2022-07-18T11:51:34;8.88;;;2.05;;
71353;SDS011;59393;51.652;4.864;2022-07-18T11:54:01;12.27;;;2.70;;
71353;SDS011;59393;51.652;4.864;2022-07-18T11:56:27;6.23;;;2.27;;
71353;SDS011;59393;51.652;4.864;2022-07-18T11:58:53;7.13;;;2.30;;
71353;SDS011;59393;51.652;4.864;2022-07-18T12:01:21;10.63;;;2.20;;
71353;SDS011;59393;51.652;4.864;2022-07-18T12:03:48;13.68;;;2.38;;
71353;SDS011;59393;51.652;4.864;2022-07-18T12:08:40;5.47;;;2.10;;
71353;SDS011;59393;51.652;4.864;2022-07-18T12:16:19;7.13;;;1.73;;
71353;SDS011;59393;51.652;4.864;2022-07-18T12:18:50;8.77;;;2.25;;
71353;SDS011;59393;51.652;4.864;2022-07-18T12:21:16;7.93;;;2.17;;
71353;SDS011;59393;51.652;4.864;2022-07-18T12:23:42;5.82;;;1.92;;
71353;SDS011;59393;51.652;4.864;2022-07-18T12:26:08;5.72;;;2.17;;
71353;SDS011;59393;51.652;4.864;2022-07-18T12:28:34;7.05;;;2.13;;
71353;SDS011;59393;51.652;4.864;2022-07-18T12:31:00;13.65;;;2.78;;
71353;SDS011;59393;51.652;4.864;2022-07-18T12:33:26;5.87;;;2.60;;
71353;SDS011;59393;51.652;4.864;2022-07-18T12:35:55;7.45;;;2.45;;
71353;SDS011;59393;51.652;4.864;2022-07-18T12:38:22;5.95;;;2.45;;
71353;SDS011;59393;51.652;4.864;2022-07-18T12:43:22;7.43;;;2.55;;
71353;SDS011;59393;51.652;4.864;2022-07-18T12:45:49;7.47;;;1.90;;
71353;SDS011;59393;51.652;4.864;2022-07-18T12:48:15;4.68;;;2.10;;
71353;SDS011;59393;51.652;4.864;2022-07-18T12:50:41;9.50;;;2.63;;
71353;SDS011;59393;51.652;4.864;2022-07-18T12:53:09;8.07;;;2.67;;
71353;SDS011;59393;51.652;4.864;2022-07-18T12:55:35;8.48;;;2.47;;
71353;SDS011;59393;51.652;4.864;2022-07-18T12:58:02;9.67;;;2.90;;
71353;SDS011;59393;51.652;4.864;2022-07-18T13:00:28;6.03;;;2.35;;
71353;SDS011;59393;51.652;4.864;2022-07-18T13:02:54;8.82;;;2.45;;
71353;SDS011;59393;51.652;4.864;2022-07-18T13:05:23;5.85;;;2.22;;
71353;SDS011;59393;51.652;4.864;2022-07-18T13:07:49;6.57;;;2.35;;
71353;SDS011;59393;51.652;4.864;2022-07-18T13:10:14;9.30;;;2.40;;
71353;SDS011;59393;51.652;4.864;2022-07-18T13:12:40;7.47;;;2.65;;
71353;SDS011;59393;51.652;4.864;2022-07-18T13:15:07;5.57;;;2.50;;
71353;SDS011;59393;51.652;4.864;2022-07-18T13:17:33;9.48;;;2.70;;
71353;SDS011;59393;51.652;4.864;2022-07-18T13:19:59;7.82;;;2.90;;
71353;SDS011;59393;51.652;4.864;2022-07-18T13:22:25;6.77;;;3.00;;
71353;SDS011;59393;51.652;4.864;2022-07-18T13:24:51;9.23;;;2.85;;
71353;SDS011;59393;51.652;4.864;2022-07-18T13:27:17;7.00;;;2.90;;
71353;SDS011;59393;51.652;4.864;2022-07-18T13:29:51;9.95;;;3.20;;
71353;SDS011;59393;51.652;4.864;2022-07-18T13:32:17;6.25;;;2.83;;
71353;SDS011;59393;51.652;4.864;2022-07-18T13:34:43;7.27;;;2.97;;
71353;SDS011;59393;51.652;4.864;2022-07-18T13:37:09;8.38;;;2.50;;
71353;SDS011;59393;51.652;4.864;2022-07-18T13:39:38;7.85;;;2.85;;
71353;SDS011;59393;51.652;4.864;2022-07-18T13:42:04;9.90;;;3.22;;
71353;SDS011;59393;51.652;4.864;2022-07-18T13:44:31;9.90;;;2.90;;
71353;SDS011;59393;51.652;4.864;2022-07-18T13:46:57;8.23;;;2.63;;
71353;SDS011;59393;51.652;4.864;2022-07-18T13:49:23;6.35;;;2.85;;
71353;SDS011;59393;51.652;4.864;2022-07-18T13:51:49;129.00;;;6.63;;
71353;SDS011;59393;51.652;4.864;2022-07-18T13:54:15;24.95;;;3.05;;
71353;SDS011;59393;51.652;4.864;2022-07-18T13:56:43;8.98;;;2.80;;
71353;SDS011;59393;51.652;4.864;2022-07-18T13:59:09;7.50;;;2.77;;
71353;SDS011;59393;51.652;4.864;2022-07-18T14:01:35;15.45;;;3.08;;
71353;SDS011;59393;51.652;4.864;2022-07-18T14:04:01;24.85;;;3.50;;
71353;SDS011;59393;51.652;4.864;2022-07-18T14:06:27;11.23;;;2.80;;
71353;SDS011;59393;51.652;4.864;2022-07-18T14:08:53;7.97;;;2.67;;
71353;SDS011;59393;51.652;4.864;2022-07-18T14:11:19;10.47;;;2.90;;
71353;SDS011;59393;51.652;4.864;2022-07-18T14:13:45;8.80;;;2.95;;
71353;SDS011;59393;51.652;4.864;2022-07-18T14:16:12;6.95;;;2.70;;
71353;SDS011;59393;51.652;4.864;2022-07-18T14:18:38;7.45;;;3.10;;
71353;SDS011;59393;51.652;4.864;2022-07-18T14:21:04;5.75;;;2.92;;
71353;SDS011;59393;51.652;4.864;2022-07-18T14:23:30;8.17;;;2.90;;
71353;SDS011;59393;51.652;4.864;2022-07-18T14:25:56;6.70;;;3.22;;
71353;SDS011;59393;51.652;4.864;2022-07-18T14:28:22;9.55;;;3.10;;
71353;SDS011;59393;51.652;4.864;2022-07-18T14:30:48;8.70;;;2.97;;
71353;SDS011;59393;51.652;4.864;2022-07-18T14:33:14;7.03;;;3.00;;
71353;SDS011;59393;51.652;4.864;2022-07-18T14:35:40;7.87;;;2.90;;
71353;SDS011;59393;51.652;4.864;2022-07-18T14:38:06;11.30;;;3.00;;
71353;SDS011;59393;51.652;4.864;2022-07-18T14:40:32;9.50;;;2.92;;
71353;SDS011;59393;51.652;4.864;2022-07-18T14:42:58;6.68;;;3.17;;
71353;SDS011;59393;51.652;4.864;2022-07-18T14:45:24;9.43;;;3.10;;
71353;SDS011;59393;51.652;4.864;2022-07-18T14:47:50;7.60;;;3.13;;
71353;SDS011;59393;51.652;4.864;2022-07-18T14:50:16;7.85;;;2.65;;
71353;SDS011;59393;51.652;4.864;2022-07-18T14:52:45;9.82;;;3.20;;
71353;SDS011;59393;51.652;4.864;2022-07-18T14:55:11;10.82;;;3.13;;
71353;SDS011;59393;51.652;4.864;2022-07-18T14:57:37;14.00;;;3.30;;
71353;SDS011;59393;51.652;4.864;2022-07-18T15:00:04;10.40;;;3.10;;
71353;SDS011;59393;51.652;4.864;2022-07-18T15:02:31;9.57;;;3.15;;
71353;SDS011;59393;51.652;4.864;2022-07-18T15:04:57;7.53;;;3.00;;
71353;SDS011;59393;51.652;4.864;2022-07-18T15:07:23;7.32;;;3.17;;
71353;SDS011;59393;51.652;4.864;2022-07-18T15:09:49;8.50;;;3.40;;
71353;SDS011;59393;51.652;4.864;2022-07-18T15:12:15;8.00;;;3.17;;
71353;SDS011;59393;51.652;4.864;2022-07-18T15:14:41;6.93;;;3.58;;
71353;SDS011;59393;51.652;4.864;2022-07-18T15:17:07;9.70;;;3.35;;
71353;SDS011;59393;51.652;4.864;2022-07-18T15:19:33;9.53;;;3.50;;
71353;SDS011;59393;51.652;4.864;2022-07-18T15:21:59;11.33;;;3.00;;
71353;SDS011;59393;51.652;4.864;2022-07-18T15:24:25;8.23;;;3.20;;